Time;durP1;ratioP1;P1;durP2;ratioP2;P2;SDS_P1;SDS_P2;PMS_P1;PMS_P2;Temp;Humidity;BMP_temperature;BMP_pressure;BME280_temperature;BME280_humidity;BME280_pressure;Samples;Min_cycle;Max_cycle;Signal;HPM_P1;HPM_P2
2024/03/29 01:43:13;;;;;;;1.85;0.50;;;12.60;54.40;14.20;98861.00;;;;4981965;28;20213;-79
2024/03/29 01:45:46;;;;;;;2.03;0.30;;;12.60;54.50;14.10;98853.00;;;;4989902;28;20198;-80
2024/03/29 01:48:13;;;;;;;2.03;0.35;;;12.60;54.50;14.10;98858.00;;;;4988915;28;20232;-80
2024/03/29 01:50:40;;;;;;;4.32;0.60;;;12.60;54.40;14.10;98856.00;;;;4989906;28;20289;-79
2024/03/29 01:53:09;;;;;;;0.73;0.20;;;12.60;54.50;14.10;98851.00;;;;4990476;28;20201;-80
2024/03/29 01:55:37;;;;;;;1.38;0.60;;;12.60;54.50;14.10;98838.00;;;;4990698;28;20206;-79
2024/03/29 01:58:04;;;;;;;1.70;0.38;;;12.60;54.50;14.10;98832.00;;;;4982058;28;20205;-80
2024/03/29 02:00:33;;;;;;;1.90;0.20;;;12.60;54.50;14.10;98821.00;;;;4990316;28;20225;-80
2024/03/29 02:03:02;;;;;;;3.55;0.70;;;12.60;54.50;14.10;98836.00;;;;4979419;28;20439;-80
2024/03/29 02:05:29;;;;;;;0.82;0.20;;;12.50;54.40;14.10;98828.00;;;;4988859;28;20659;-80
2024/03/29 02:07:57;;;;;;;1.00;0.10;;;12.50;54.40;14.10;98834.00;;;;4989724;28;20237;-80
2024/03/29 02:10:24;;;;;;;2.67;0.25;;;12.50;54.40;14.10;98842.00;;;;4990255;28;20206;-80
2024/03/29 02:12:51;;;;;;;2.83;0.40;;;12.50;54.40;14.10;98841.00;;;;4989868;28;20197;-80
2024/03/29 02:15:18;;;;;;;2.55;0.40;;;12.50;54.40;14.00;98845.00;;;;4991011;28;20217;-79
2024/03/29 02:17:45;;;;;;;1.05;0.38;;;12.50;54.40;14.00;98854.00;;;;4979138;28;20196;-79
2024/03/29 02:20:13;;;;;;;3.20;0.28;;;12.40;54.40;14.00;98846.00;;;;4990834;28;20491;-79
2024/03/29 02:22:52;;;;;;;2.85;0.52;;;12.40;54.40;13.90;98850.00;;;;4989820;28;20208;-80
2024/03/29 02:25:21;;;;;;;2.63;0.38;;;12.40;54.50;13.90;98852.00;;;;4988709;28;20201;-79
2024/03/29 02:27:49;;;;;;;1.52;0.40;;;12.40;54.50;14.00;98853.00;;;;4990090;28;20228;-80
2024/03/29 02:30:16;;;;;;;1.08;0.20;;;12.40;54.50;13.90;98859.00;;;;4991283;28;20212;-80
2024/03/29 02:32:44;;;;;;;1.48;0.40;;;12.30;54.50;13.90;98865.00;;;;4998654;28;20204;-79
2024/03/29 02:35:11;;;;;;;0.77;0.40;;;12.30;54.60;13.90;98865.00;;;;4989555;28;20205;-79
2024/03/29 02:37:38;;;;;;;2.33;0.55;;;12.30;54.60;13.90;98875.00;;;;4989071;28;20537;-80
2024/03/29 02:40:08;;;;;;;0.73;0.30;;;12.30;54.60;13.90;98883.00;;;;4990132;28;20196;-80
2024/03/29 02:42:36;;;;;;;1.67;0.43;;;12.30;54.70;13.90;98882.00;;;;4990165;28;20737;-79
2024/03/29 02:45:04;;;;;;;1.25;0.40;;;12.30;54.70;13.90;98874.00;;;;4989861;28;20202;-80
2024/03/29 02:47:31;;;;;;;2.25;0.40;;;12.30;54.70;13.90;98866.00;;;;4990370;28;20222;-80
2024/03/29 02:49:58;;;;;;;4.00;0.45;;;12.30;54.80;13.90;98874.00;;;;4992215;28;20252;-79
2024/03/29 02:52:24;;;;;;;1.30;0.35;;;12.30;54.80;13.90;98871.00;;;;4989742;28;20222;-79
2024/03/29 02:54:51;;;;;;;1.73;0.30;;;12.30;54.80;13.90;98865.00;;;;4988881;28;20240;-79
2024/03/29 02:57:16;;;;;;;1.17;0.70;;;12.30;54.90;13.90;98872.00;;;;4989256;28;20206;-79
2024/03/29 02:59:45;;;;;;;0.93;0.45;;;12.30;54.90;13.90;98874.00;;;;4988896;28;20208;-79
2024/03/29 03:02:11;;;;;;;3.30;0.70;;;12.30;55.00;13.90;98869.00;;;;4989332;28;20213;-79
2024/03/29 03:04:38;;;;;;;2.03;0.60;;;12.30;55.00;13.90;98880.00;;;;4987874;28;20233;-79
2024/03/29 03:12:30;;;;;;;0.90;0.47;;;12.30;55.00;13.90;98869.00;;;;4949593;28;20291;-79
2024/03/29 03:14:59;;;;;;;1.92;0.70;;;12.30;55.00;13.90;98863.00;;;;4988059;28;20530;-80
2024/03/29 03:17:27;;;;;;;1.33;0.60;;;12.30;55.10;13.90;98869.00;;;;4988251;28;20543;-79
2024/03/29 03:19:53;;;;;;;2.35;0.50;;;12.30;55.00;13.90;98876.00;;;;4987924;28;20225;-80
2024/03/29 03:22:20;;;;;;;2.22;0.47;;;12.30;55.10;14.00;98879.00;;;;4991369;28;20578;-80
2024/03/29 03:24:46;;;;;;;2.70;0.50;;;12.30;55.10;14.00;98889.00;;;;4986638;28;20675;-79
2024/03/29 03:27:13;;;;;;;2.03;0.45;;;12.40;55.10;14.00;98891.00;;;;4988955;28;20232;-80
2024/03/29 03:29:40;;;;;;;1.58;0.40;;;12.30;55.10;14.00;98891.00;;;;4988407;28;20190;-79
2024/03/29 03:32:08;;;;;;;1.85;0.30;;;12.40;55.20;14.00;98881.00;;;;4988749;28;20190;-79
2024/03/29 03:34:34;;;;;;;0.88;0.30;;;12.30;55.10;14.00;98882.00;;;;4987459;28;20197;-80
2024/03/29 03:37:01;;;;;;;0.70;0.10;;;12.40;55.20;14.00;98889.00;;;;4988521;28;20719;-79
2024/03/29 03:39:27;;;;;;;1.65;0.43;;;12.40;55.10;14.00;98890.00;;;;4989257;28;20578;-80
2024/03/29 03:41:54;;;;;;;0.90;0.30;;;12.40;55.10;14.00;98889.00;;;;4988255;28;20198;-79
2024/03/29 03:44:21;;;;;;;2.40;0.40;;;12.40;55.10;14.10;98892.00;;;;4987247;28;20208;-80
2024/03/29 03:46:48;;;;;;;1.40;0.70;;;12.50;55.30;14.10;98891.00;;;;4984317;28;20217;-79
2024/03/29 03:49:16;;;;;;;0.77;0.20;;;12.50;55.20;14.10;98895.00;;;;4988262;28;20304;-80
2024/03/29 03:51:44;;;;;;;1.63;0.38;;;12.50;55.20;14.10;98892.00;;;;4987878;28;20194;-79
2024/03/29 03:54:10;;;;;;;0.63;0.10;;;12.50;55.20;14.10;98878.00;;;;4988162;28;20196;-80
2024/03/29 03:56:37;;;;;;;1.80;0.47;;;12.50;55.20;14.20;98899.00;;;;4993113;28;20213;-79
2024/03/29 03:59:03;;;;;;;1.95;0.20;;;12.60;55.20;14.20;98909.00;;;;5004459;28;20201;-80
2024/03/29 04:01:29;;;;;;;1.38;0.28;;;12.60;55.20;14.20;98892.00;;;;4988410;28;20213;-80
2024/03/29 04:03:56;;;;;;;2.05;0.40;;;12.60;55.30;14.20;98896.00;;;;4987574;28;20213;-80
2024/03/29 04:06:24;;;;;;;1.70;0.25;;;12.70;55.30;14.30;98894.00;;;;4989444;28;20193;-80
2024/03/29 04:08:50;;;;;;;0.50;0.40;;;12.70;55.30;14.30;98899.00;;;;4987854;28;20225;-79
2024/03/29 04:11:17;;;;;;;1.30;0.43;;;12.70;55.30;14.30;98905.00;;;;4989057;28;20221;-80
2024/03/29 04:13:45;;;;;;;1.83;0.38;;;12.70;55.20;14.30;98903.00;;;;4988744;28;20288;-80
2024/03/29 04:16:12;;;;;;;2.78;0.57;;;12.80;55.20;14.40;98908.00;;;;4992420;28;20198;-79
2024/03/29 04:18:38;;;;;;;2.40;0.38;;;12.80;55.20;14.40;98910.00;;;;4991759;28;20184;-79
2024/03/29 04:21:05;;;;;;;3.38;0.50;;;12.80;55.20;14.40;98903.00;;;;4992966;28;20201;-79
2024/03/29 04:23:33;;;;;;;1.10;0.20;;;12.80;55.20;14.40;98901.00;;;;4990601;28;20209;-79
2024/03/29 04:26:00;;;;;;;1.35;0.30;;;12.90;55.20;14.50;98900.00;;;;4988549;28;20231;-79
2024/03/29 04:28:27;;;;;;;0.55;0.20;;;12.90;55.20;14.50;98907.00;;;;4977230;28;20704;-79
2024/03/29 04:30:54;;;;;;;2.30;0.30;;;13.00;55.20;14.60;98897.00;;;;4991663;28;20205;-79
2024/03/29 04:33:20;;;;;;;1.73;0.20;;;13.00;55.20;14.60;98899.00;;;;4997358;28;20300;-80
2024/03/29 04:35:56;;;;;;;0.60;0.30;;;13.00;55.20;14.50;98908.00;;;;4991148;28;20197;-79
2024/03/29 04:38:24;;;;;;;1.08;0.20;;;13.00;55.20;14.60;98906.00;;;;4992659;28;20189;-83
2024/03/29 04:40:54;;;;;;;0.52;0.30;;;13.00;55.30;14.60;98888.00;;;;4991329;28;20201;-81
2024/03/29 04:43:24;;;;;;;1.67;0.20;;;13.10;55.40;14.60;98894.00;;;;4991840;28;20202;-81
2024/03/29 04:45:51;;;;;;;1.80;0.30;;;13.10;55.50;14.60;98888.00;;;;4991463;28;20557;-81
2024/03/29 04:48:18;;;;;;;0.38;0.10;;;13.10;55.60;14.60;98888.00;;;;4999684;28;20225;-80
2024/03/29 04:50:45;;;;;;;1.40;0.32;;;13.10;55.90;14.60;98893.00;;;;4990599;28;20204;-82
2024/03/29 04:53:12;;;;;;;0.68;0.20;;;13.10;55.90;14.60;98913.00;;;;4988605;28;20194;-81
2024/03/29 04:55:40;;;;;;;2.55;0.22;;;13.10;56.00;14.60;98914.00;;;;4990477;28;20212;-81
2024/03/29 04:58:08;;;;;;;1.00;0.15;;;13.10;56.20;14.60;98928.00;;;;4990935;28;20668;-81
2024/03/29 05:00:35;;;;;;;0.50;0.15;;;13.10;56.30;14.60;98927.00;;;;4990684;28;20213;-82
2024/03/29 05:03:02;;;;;;;1.55;0.13;;;13.10;56.60;14.60;98933.00;;;;4991880;28;20201;-81
2024/03/29 05:05:29;;;;;;;1.33;0.38;;;13.10;56.40;14.60;98931.00;;;;4992201;28;20208;-81
2024/03/29 05:07:56;;;;;;;0.52;0.20;;;13.10;56.50;14.60;98940.00;;;;4990245;28;20233;-82
2024/03/29 05:10:23;;;;;;;0.68;0.30;;;13.10;56.50;14.60;98934.00;;;;4991063;28;20193;-82
2024/03/29 05:12:50;;;;;;;0.57;0.10;;;13.10;56.80;14.60;98922.00;;;;4983935;28;20198;-82
2024/03/29 05:15:19;;;;;;;1.30;0.10;;;13.00;56.90;14.60;98932.00;;;;4991039;28;20204;-82
2024/03/29 05:17:45;;;;;;;1.67;0.20;;;13.00;56.80;14.60;98935.00;;;;4996768;28;20193;-82
2024/03/29 05:20:13;;;;;;;1.45;0.28;;;13.00;56.90;14.60;98922.00;;;;5007763;28;20227;-82
2024/03/29 05:22:40;;;;;;;0.50;0.17;;;13.00;57.20;14.50;98922.00;;;;5002529;28;20204;-82
2024/03/29 05:25:07;;;;;;;0.55;0.15;;;13.00;57.30;14.50;98925.00;;;;5004242;28;20197;-84
2024/03/29 05:27:34;;;;;;;2.42;0.30;;;12.90;57.20;14.50;98939.00;;;;5005636;28;20223;-82
2024/03/29 05:30:02;;;;;;;1.17;0.20;;;12.90;57.40;14.50;98937.00;;;;5007974;28;20200;-82
2024/03/29 05:32:31;;;;;;;0.40;0.20;;;12.90;57.60;14.40;98955.00;;;;5004263;28;20196;-82
2024/03/29 05:34:58;;;;;;;0.52;0.10;;;12.90;57.80;14.40;98969.00;;;;4997556;28;20685;-82
2024/03/29 05:37:25;;;;;;;2.03;0.30;;;12.90;57.90;14.40;98968.00;;;;4990365;28;20534;-82
2024/03/29 05:39:58;;;;;;;0.77;0.17;;;12.80;58.00;14.40;98964.00;;;;4990537;28;20220;-82
2024/03/29 05:42:26;;;;;;;0.55;0.10;;;12.80;58.00;14.40;98952.00;;;;4988453;28;20229;-82
2024/03/29 05:44:54;;;;;;;0.95;0.35;;;12.80;58.30;14.50;98966.00;;;;4989798;28;20252;-82
2024/03/29 05:47:21;;;;;;;0.68;0.22;;;12.80;58.30;14.50;98969.00;;;;4990553;28;20275;-82
2024/03/29 05:49:50;;;;;;;2.00;0.20;;;12.80;58.40;14.40;98965.00;;;;4989735;28;20198;-82
2024/03/29 05:52:18;;;;;;;0.55;0.28;;;12.80;58.40;14.50;98974.00;;;;4989981;28;20239;-82
2024/03/29 05:54:47;;;;;;;0.55;0.20;;;12.80;58.50;14.50;98979.00;;;;4999365;28;20197;-82
2024/03/29 05:57:14;;;;;;;0.75;0.32;;;12.80;58.60;14.50;98973.00;;;;4991223;28;20206;-83
2024/03/29 05:59:41;;;;;;;2.10;0.20;;;12.80;58.60;14.50;98974.00;;;;4986986;28;20197;-83
2024/03/29 06:02:08;;;;;;;1.30;0.35;;;12.80;58.70;14.50;98965.00;;;;4988902;28;20233;-82
2024/03/29 06:04:37;;;;;;;0.95;0.20;;;12.80;58.80;14.50;98975.00;;;;4981144;28;20214;-82
2024/03/29 06:07:08;;;;;;;2.88;0.30;;;12.80;58.90;14.50;98984.00;;;;4988842;28;20256;-82
2024/03/29 06:09:35;;;;;;;0.98;0.13;;;12.80;58.90;14.50;98995.00;;;;4989714;28;20252;-82
2024/03/29 06:12:02;;;;;;;0.32;0.10;;;12.80;59.00;14.50;98989.00;;;;4989746;28;20707;-80
2024/03/29 06:17:26;;;;;;;0.45;0.20;;;12.80;59.10;14.50;98998.00;;;;4989802;28;20295;-81
2024/03/29 06:19:56;;;;;;;1.10;0.30;;;12.80;59.00;14.60;98990.00;;;;4990423;28;20236;-82
2024/03/29 06:22:25;;;;;;;1.92;0.30;;;12.80;59.20;14.60;98995.00;;;;4989142;28;20197;-82
2024/03/29 06:24:53;;;;;;;0.40;0.17;;;12.80;59.20;14.60;98995.00;;;;4989987;28;20674;-83
2024/03/29 06:27:22;;;;;;;0.85;0.40;;;12.80;59.20;14.60;99003.00;;;;4989669;28;20204;-82
2024/03/29 06:29:50;;;;;;;1.88;0.25;;;12.80;59.30;14.60;98986.00;;;;4991713;28;20197;-82
2024/03/29 06:32:18;;;;;;;1.42;0.30;;;12.90;59.50;14.60;98998.00;;;;4989992;28;20213;-82
2024/03/29 06:34:45;;;;;;;1.15;0.30;;;12.90;59.70;14.60;99000.00;;;;4989865;28;20247;-82
2024/03/29 06:37:12;;;;;;;0.95;0.30;;;12.90;59.60;14.70;99006.00;;;;4990257;28;20201;-82
2024/03/29 06:39:41;;;;;;;0.68;0.10;;;12.90;59.60;14.70;99000.00;;;;4989625;28;20236;-83
2024/03/29 06:42:09;;;;;;;0.35;0.10;;;12.90;59.60;14.70;99004.00;;;;4988740;28;20220;-82
2024/03/29 06:44:37;;;;;;;1.75;0.30;;;12.90;59.60;14.70;99005.00;;;;4989776;28;20204;-82
2024/03/29 06:47:04;;;;;;;1.88;0.30;;;12.90;59.60;14.70;98993.00;;;;4990492;28;20206;-82
2024/03/29 06:49:32;;;;;;;1.30;0.25;;;13.00;59.70;14.80;98991.00;;;;4982719;28;20272;-81
2024/03/29 06:52:01;;;;;;;0.20;0.10;;;13.00;59.70;14.80;98991.00;;;;4985863;28;20671;-82
2024/03/29 06:54:28;;;;;;;0.88;0.43;;;13.00;59.80;14.80;98992.00;;;;4990040;28;20264;-82
2024/03/29 06:56:57;;;;;;;0.80;0.30;;;13.00;59.90;14.90;98987.00;;;;4985441;28;20202;-81
2024/03/29 06:59:24;;;;;;;1.30;0.25;;;13.10;60.00;14.90;98976.00;;;;4989902;28;20284;-81
2024/03/29 07:01:52;;;;;;;1.85;0.50;;;13.10;60.60;14.90;98981.00;;;;4988860;28;20229;-82
2024/03/29 07:04:20;;;;;;;1.23;0.20;;;13.10;59.90;14.90;98981.00;;;;4984933;28;20671;-82
2024/03/29 07:06:51;;;;;;;0.90;0.30;;;13.10;59.90;14.90;98977.00;;;;4989579;28;20256;-82
2024/03/29 07:09:19;;;;;;;0.50;0.20;;;13.10;59.80;14.90;98985.00;;;;4990475;28;20225;-81
2024/03/29 07:11:47;;;;;;;0.50;0.22;;;13.10;59.80;14.90;98994.00;;;;4990272;28;20205;-82
2024/03/29 07:14:16;;;;;;;0.28;0.15;;;13.20;59.90;15.00;98991.00;;;;4989839;28;20208;-82
2024/03/29 07:16:43;;;;;;;0.57;0.28;;;13.20;60.00;15.00;98997.00;;;;4989699;28;20205;-82
2024/03/29 07:19:12;;;;;;;0.73;0.20;;;13.20;59.90;15.00;98998.00;;;;4990286;28;20692;-82
2024/03/29 07:21:39;;;;;;;1.70;0.28;;;13.20;60.00;15.00;99000.00;;;;4993429;28;20209;-82
2024/03/29 07:24:07;;;;;;;0.85;0.20;;;13.30;60.20;15.00;98998.00;;;;4989498;28;20248;-82
2024/03/29 07:26:34;;;;;;;2.33;0.45;;;13.30;60.10;15.10;99004.00;;;;4986331;28;20205;-81
2024/03/29 07:29:01;;;;;;;1.02;0.20;;;13.30;60.20;15.10;99009.00;;;;4988283;28;20610;-82
2024/03/29 07:31:32;;;;;;;0.63;0.25;;;13.30;60.40;15.10;99004.00;;;;4989753;28;20252;-82
2024/03/29 07:33:59;;;;;;;1.35;0.50;;;13.40;60.50;15.20;99008.00;;;;4989557;28;20205;-82
2024/03/29 07:36:31;;;;;;;0.85;0.20;;;13.40;60.50;15.20;99012.00;;;;4987764;28;20598;-82
2024/03/29 07:38:58;;;;;;;1.33;0.50;;;13.40;60.60;15.20;99009.00;;;;4989080;28;20213;-82
2024/03/29 07:41:25;;;;;;;0.73;0.28;;;13.40;60.30;15.20;99020.00;;;;4989044;28;20202;-82
2024/03/29 07:43:56;;;;;;;0.52;0.10;;;13.40;60.30;15.20;99010.00;;;;4984133;28;20575;-82
2024/03/29 07:46:23;;;;;;;1.17;0.20;;;13.40;60.40;15.20;99005.00;;;;4981945;28;20201;-82
2024/03/29 07:48:51;;;;;;;0.82;0.35;;;13.50;60.30;15.20;99008.00;;;;4988168;28;20497;-82
2024/03/29 07:51:18;;;;;;;2.00;0.45;;;13.50;60.30;15.30;99011.00;;;;4987356;28;20205;-83
2024/03/29 07:53:45;;;;;;;0.45;0.20;;;13.50;60.30;15.30;99012.00;;;;4987681;28;20209;-84
2024/03/29 07:56:12;;;;;;;1.27;0.20;;;13.50;60.30;15.30;99016.00;;;;5006786;28;20207;-82
2024/03/29 07:58:39;;;;;;;0.50;0.20;;;13.50;60.20;15.30;99023.00;;;;5001868;28;20301;-81
2024/03/29 08:01:06;;;;;;;0.17;0.10;;;13.50;60.30;15.30;99010.00;;;;4987280;28;20225;-82
2024/03/29 08:03:34;;;;;;;0.47;0.20;;;13.60;60.30;15.30;99014.00;;;;4987734;28;20648;-79
2024/03/29 08:06:05;;;;;;;0.30;0.10;;;13.50;60.30;15.30;99005.00;;;;4987153;28;20197;-79
2024/03/29 08:08:32;;;;;;;0.68;0.20;;;13.50;60.30;15.40;99007.00;;;;4987880;28;20232;-79
2024/03/29 08:11:00;;;;;;;0.75;0.38;;;13.60;60.20;15.40;99000.00;;;;4987902;28;20224;-79
2024/03/29 08:13:27;;;;;;;0.35;0.10;;;13.60;60.20;15.40;98999.00;;;;5008310;28;20204;-79
2024/03/29 08:15:59;;;;;;;0.55;0.20;;;13.60;60.30;15.40;99003.00;;;;5002419;28;20206;-80
2024/03/29 08:18:26;;;;;;;0.40;0.10;;;13.60;60.40;15.50;99014.00;;;;4969958;28;20265;-80
2024/03/29 08:20:55;;;;;;;1.20;0.35;;;13.60;60.50;15.50;99032.00;;;;4976071;28;20216;-82
2024/03/29 08:23:24;;;;;;;1.25;0.47;;;13.70;60.80;15.60;99018.00;;;;4989151;28;20197;-81
2024/03/29 08:25:51;;;;;;;0.40;0.20;;;13.70;60.70;15.60;99019.00;;;;4991995;28;20212;-81
2024/03/29 08:28:19;;;;;;;1.88;0.17;;;13.80;60.80;15.60;99020.00;;;;4990651;28;20259;-81
2024/03/29 08:30:46;;;;;;;1.00;0.32;;;13.80;60.60;15.70;99008.00;;;;4982686;28;20209;-81
2024/03/29 08:33:13;;;;;;;0.57;0.30;;;13.80;60.60;15.70;99003.00;;;;4990099;28;20204;-81
2024/03/29 08:35:43;;;;;;;0.60;0.20;;;13.90;60.70;15.80;99018.00;;;;4984925;28;20201;-81
2024/03/29 08:38:10;;;;;;;0.45;0.20;;;14.00;60.80;15.80;99030.00;;;;4989000;28;20229;-82
2024/03/29 08:40:42;;;;;;;0.40;0.20;;;14.00;60.80;15.90;99035.00;;;;4987717;28;20197;-83
2024/03/29 08:43:08;;;;;;;0.40;0.20;;;14.10;60.90;16.00;99034.00;;;;4993411;28;20293;-83
2024/03/29 08:45:40;;;;;;;0.30;0.20;;;14.10;60.70;16.00;99016.00;;;;4991425;28;20213;-82
2024/03/29 08:48:08;;;;;;;2.22;0.20;;;14.20;60.70;16.10;99037.00;;;;4987379;28;20201;-81
2024/03/29 08:50:35;;;;;;;0.80;0.20;;;14.20;60.50;16.10;99030.00;;;;4988613;28;20193;-82
2024/03/29 08:53:03;;;;;;;1.95;0.32;;;14.30;60.50;16.20;99034.00;;;;4988144;28;20205;-82
2024/03/29 08:55:30;;;;;;;0.82;0.35;;;14.40;60.60;16.30;99047.00;;;;4986702;28;20197;-81
2024/03/29 08:57:59;;;;;;;0.95;0.50;;;14.50;60.80;16.40;99042.00;;;;4988632;28;20206;-80
2024/03/29 09:00:26;;;;;;;0.40;0.20;;;14.50;60.80;16.50;99039.00;;;;4989066;28;20297;-81
2024/03/29 09:02:54;;;;;;;1.23;0.32;;;14.60;60.80;16.60;99031.00;;;;4993637;28;20201;-80
2024/03/29 09:05:22;;;;;;;0.75;0.30;;;14.70;60.60;16.70;99041.00;;;;4985896;28;20609;-80
2024/03/29 09:07:49;;;;;;;1.23;0.55;;;14.80;60.60;16.80;99051.00;;;;4973385;28;20206;-82
2024/03/29 09:10:16;;;;;;;1.13;0.60;;;14.90;60.40;16.90;99060.00;;;;4981365;28;20596;-83
2024/03/29 09:12:43;;;;;;;3.35;0.40;;;15.00;60.50;17.00;99057.00;;;;4986885;28;20205;-80
2024/03/29 09:15:15;;;;;;;1.45;0.43;;;15.10;60.50;17.10;99060.00;;;;4977272;28;20194;-82
2024/03/29 09:17:42;;;;;;;0.60;0.20;;;15.20;60.20;17.20;99057.00;;;;4988675;28;20291;-80
2024/03/29 09:20:11;;;;;;;2.72;0.70;;;15.30;60.20;17.30;99048.00;;;;4991142;28;20248;-82
2024/03/29 09:22:38;;;;;;;0.77;0.40;;;15.40;59.90;17.40;99055.00;;;;4991530;28;20208;-80
2024/03/29 09:25:09;;;;;;;1.63;0.13;;;15.50;59.80;17.50;99062.00;;;;4990900;28;20204;-81
2024/03/29 09:27:36;;;;;;;0.38;0.20;;;15.60;59.80;17.60;99066.00;;;;4989810;28;20197;-81
2024/03/29 09:30:05;;;;;;;1.80;0.55;;;15.70;59.60;17.70;99075.00;;;;4983363;28;20245;-82
2024/03/29 09:32:34;;;;;;;3.38;0.30;;;15.80;59.60;17.80;99077.00;;;;4978790;28;20297;-82
2024/03/29 09:35:01;;;;;;;0.93;0.28;;;15.80;59.50;17.90;99079.00;;;;4985839;28;20194;-81
2024/03/29 09:37:28;;;;;;;0.30;0.20;;;16.00;59.60;18.00;99075.00;;;;4989966;28;20679;-81
2024/03/29 09:39:55;;;;;;;0.47;0.22;;;16.10;59.30;18.10;99085.00;;;;4986472;28;20193;-81
2024/03/29 09:42:25;;;;;;;1.10;0.30;;;16.20;59.00;18.10;99090.00;;;;4991672;28;20201;-80
2024/03/29 09:44:55;;;;;;;2.13;0.30;;;16.20;58.60;18.20;99073.00;;;;4990357;28;20799;-81
2024/03/29 09:47:24;;;;;;;0.75;0.38;;;16.30;58.70;18.30;99087.00;;;;4990814;28;21829;-82
2024/03/29 09:49:55;;;;;;;0.82;0.38;;;16.40;58.40;18.30;99079.00;;;;4991004;28;20217;-81
2024/03/29 09:52:23;;;;;;;2.30;0.50;;;16.40;58.50;18.30;99097.00;;;;4976781;28;20195;-81
2024/03/29 09:54:50;;;;;;;0.70;0.38;;;16.50;58.10;18.30;99099.00;;;;4988323;28;20220;-80
2024/03/29 09:57:18;;;;;;;0.90;0.40;;;16.50;57.70;18.30;99100.00;;;;4988754;28;20205;-81
2024/03/29 09:59:45;;;;;;;1.45;0.50;;;16.60;57.60;18.30;99101.00;;;;4989675;28;20664;-81
2024/03/29 10:02:17;;;;;;;1.00;0.45;;;16.50;57.30;18.20;99101.00;;;;4989404;28;20218;-81
2024/03/29 10:04:47;;;;;;;1.55;0.50;;;16.50;57.20;18.30;99108.00;;;;4990961;28;20212;-81
2024/03/29 10:07:16;;;;;;;1.17;0.50;;;16.50;57.30;18.20;99090.00;;;;4990024;28;20224;-81
2024/03/29 10:09:44;;;;;;;1.88;0.68;;;16.50;57.10;18.20;99091.00;;;;4989208;28;20221;-81
2024/03/29 10:12:11;;;;;;;1.45;0.70;;;16.50;57.00;18.20;99090.00;;;;4991583;28;20206;-80
2024/03/29 10:14:49;;;;;;;1.13;0.50;;;16.50;57.10;18.20;99085.00;;;;4988479;28;20558;-81
2024/03/29 10:17:18;;;;;;;1.73;0.70;;;16.50;57.20;18.30;99075.00;;;;4971811;28;20197;-81
2024/03/29 10:19:45;;;;;;;0.50;0.38;;;16.50;57.50;18.40;99075.00;;;;4971071;28;20238;-81
2024/03/29 10:22:12;;;;;;;1.38;0.65;;;16.60;57.70;18.50;99089.00;;;;4981809;28;20201;-81
2024/03/29 10:24:40;;;;;;;1.20;0.50;;;16.70;57.70;18.50;99093.00;;;;4988880;28;20202;-81
2024/03/29 10:27:07;;;;;;;2.80;0.60;;;16.70;57.40;18.60;99101.00;;;;4991353;28;20297;-81
2024/03/29 10:29:34;;;;;;;0.40;0.30;;;16.80;57.30;18.60;99111.00;;;;4988387;28;20244;-80
2024/03/29 10:32:02;;;;;;;1.25;0.70;;;16.90;57.30;18.60;99101.00;;;;4990108;28;20206;-80
2024/03/29 10:34:33;;;;;;;1.27;0.40;;;17.00;57.20;18.70;99094.00;;;;4990723;28;20676;-80
2024/03/29 10:37:03;;;;;;;0.85;0.60;;;17.00;57.00;18.70;99090.00;;;;4989970;28;20664;-80
2024/03/29 10:39:33;;;;;;;1.05;0.70;;;17.10;57.40;18.70;99094.00;;;;4989226;28;20198;-82
2024/03/29 10:42:05;;;;;;;1.75;0.40;;;17.10;56.80;18.70;99100.00;;;;4989529;28;20209;-80
2024/03/29 10:44:35;;;;;;;1.08;0.50;;;17.10;56.80;18.80;99117.00;;;;4987743;28;20208;-80
2024/03/29 10:47:03;;;;;;;0.82;0.50;;;17.20;56.80;18.90;99099.00;;;;4989031;28;20198;-81
2024/03/29 10:49:35;;;;;;;1.08;0.60;;;17.20;56.70;18.90;99099.00;;;;4989933;28;20222;-81
2024/03/29 10:52:04;;;;;;;0.45;0.30;;;17.30;56.80;18.90;99091.00;;;;4988144;28;20208;-81
2024/03/29 10:54:34;;;;;;;1.13;0.60;;;17.30;56.70;19.00;99094.00;;;;4989185;28;20198;-80
2024/03/29 10:57:13;;;;;;;0.60;0.38;;;17.40;56.50;19.00;99099.00;;;;4987929;28;20190;-81
2024/03/29 10:59:50;;;;;;;1.65;0.60;;;17.40;56.20;19.10;99107.00;;;;4989553;28;20594;-81
2024/03/29 11:02:40;;;;;;;0.70;0.52;;;17.50;56.50;19.10;99119.00;;;;4982282;28;20213;-81
2024/03/29 11:05:13;;;;;;;0.88;0.60;;;17.50;56.30;19.20;99116.00;;;;4971128;28;20201;-81
2024/03/29 11:07:42;;;;;;;1.10;0.63;;;17.60;56.50;19.30;99125.00;;;;4983093;28;20240;-81
2024/03/29 11:10:16;;;;;;;1.42;0.77;;;17.70;56.40;19.40;99134.00;;;;4986467;28;20703;-81
2024/03/29 11:13:00;;;;;;;2.63;0.60;;;17.70;56.10;19.40;99153.00;;;;4987157;28;20656;-81
2024/03/29 11:15:31;;;;;;;1.08;0.45;;;17.80;56.20;19.60;99153.00;;;;4987675;28;20201;-81
2024/03/29 11:17:59;;;;;;;0.50;0.35;;;17.80;56.20;19.60;99143.00;;;;4988523;28;20193;-81
2024/03/29 11:20:34;;;;;;;1.60;0.60;;;17.90;56.10;19.70;99137.00;;;;5007603;28;20728;-81
2024/03/29 11:23:09;;;;;;;0.85;0.57;;;17.90;56.10;19.70;99118.00;;;;4988028;28;20200;-82
2024/03/29 11:25:43;;;;;;;1.23;0.47;;;18.10;55.50;19.70;99116.00;;;;4978152;28;20567;-81
2024/03/29 11:28:15;;;;;;;2.35;0.40;;;18.10;55.50;19.80;99110.00;;;;4988591;28;20668;-82
2024/03/29 11:30:47;;;;;;;0.50;0.40;;;18.10;55.50;19.80;99120.00;;;;4988565;28;20229;-81
2024/03/29 11:33:33;;;;;;;0.20;0.20;;;18.20;55.10;19.70;99116.00;;;;4983388;28;20201;-81
2024/03/29 11:36:02;;;;;;;1.23;0.50;;;18.20;54.50;19.80;99121.00;;;;4993917;28;20208;-81
2024/03/29 11:38:36;;;;;;;0.38;0.30;;;18.20;54.70;19.70;99119.00;;;;4988644;28;20247;-81
2024/03/29 11:41:05;;;;;;;0.88;0.30;;;18.20;54.50;19.80;99109.00;;;;4987984;28;20223;-81
2024/03/29 11:43:35;;;;;;;0.98;0.50;;;18.20;54.80;19.80;99126.00;;;;4988077;28;20221;-81
2024/03/29 11:46:07;;;;;;;1.05;0.47;;;18.30;54.70;19.90;99124.00;;;;4988460;28;20206;-81
2024/03/29 11:48:35;;;;;;;1.15;0.50;;;18.30;54.60;19.90;99141.00;;;;4988184;28;20210;-81
2024/03/29 11:51:05;;;;;;;1.45;0.45;;;18.30;54.60;19.90;99141.00;;;;4985061;28;20324;-81
2024/03/29 11:53:33;;;;;;;0.95;0.40;;;18.30;54.50;20.00;99141.00;;;;4987013;28;21033;-82
2024/03/29 11:56:01;;;;;;;2.13;0.40;;;18.30;54.60;20.00;99140.00;;;;4987839;28;20219;-82
2024/03/29 11:58:31;;;;;;;1.30;0.50;;;18.40;54.70;20.10;99136.00;;;;4988705;28;20204;-82
2024/03/29 12:01:00;;;;;;;1.95;0.73;;;18.40;54.60;20.10;99141.00;;;;4985614;28;20284;-81
2024/03/29 12:03:29;;;;;;;0.68;0.47;;;18.50;54.60;20.20;99140.00;;;;4988949;28;20201;-81
2024/03/29 12:06:01;;;;;;;1.35;0.50;;;18.50;54.60;20.20;99152.00;;;;4987686;28;20222;-80
2024/03/29 12:08:32;;;;;;;1.85;0.70;;;18.60;54.00;20.20;99154.00;;;;4974505;28;20197;-81
2024/03/29 12:10:59;;;;;;;1.23;0.65;;;18.60;53.90;20.20;99157.00;;;;4987808;28;20240;-81
2024/03/29 12:13:25;;;;;;;1.52;0.70;;;18.60;54.00;20.30;99154.00;;;;4987974;28;20226;-81
2024/03/29 12:15:53;;;;;;;0.73;0.50;;;18.60;54.00;20.30;99168.00;;;;4988216;28;20609;-81
2024/03/29 12:18:24;;;;;;;1.42;0.65;;;18.70;53.80;20.30;99179.00;;;;4987610;28;20631;-81
2024/03/29 12:20:53;;;;;;;2.40;0.90;;;18.70;53.60;20.30;99170.00;;;;4983896;28;20233;-81
2024/03/29 12:23:22;;;;;;;0.85;0.40;;;18.70;53.50;20.30;99157.00;;;;4984924;28;20864;-81
2024/03/29 12:25:52;;;;;;;1.48;0.80;;;18.70;53.40;20.40;99162.00;;;;4987045;28;20209;-81
2024/03/29 12:28:20;;;;;;;0.60;0.45;;;18.70;53.60;20.40;99161.00;;;;4988315;28;20198;-81
2024/03/29 12:30:49;;;;;;;1.70;0.70;;;18.70;53.70;20.50;99158.00;;;;4989479;28;20225;-81
2024/03/29 12:33:19;;;;;;;1.08;0.60;;;18.80;54.00;20.70;99166.00;;;;4989193;28;20220;-81
2024/03/29 12:35:49;;;;;;;0.57;0.57;;;18.90;54.30;20.80;99165.00;;;;4988334;28;20212;-81
2024/03/29 12:38:18;;;;;;;1.90;1.10;;;18.90;54.00;20.90;99169.00;;;;4991958;28;20260;-81
2024/03/29 12:40:47;;;;;;;2.47;1.00;;;19.10;54.00;21.00;99176.00;;;;4993940;28;20186;-82
2024/03/29 12:43:19;;;;;;;2.20;1.17;;;19.20;54.10;21.10;99167.00;;;;4994085;28;21018;-82
2024/03/29 12:45:47;;;;;;;1.40;0.90;;;19.30;54.10;21.30;99165.00;;;;4991358;28;20202;-82
2024/03/29 12:48:16;;;;;;;2.42;1.10;;;19.50;54.20;21.40;99171.00;;;;4991197;28;20206;-81
2024/03/29 12:50:47;;;;;;;1.58;1.02;;;19.60;53.70;21.50;99166.00;;;;4989330;28;20233;-83